This is the latest recevied weather packets stored in our database for station/object OH2CHY-10. If no packets are shown the sender has not sent any weather packets the latest 10 day(s).
| Time | Temp. | Humidity | Pressure | Rain* | Wind** | Luminosity | Snow |
|---|---|---|---|---|---|---|---|
| 1777751943 | 12.22° C | 50% | 1008.4 hPa | - | - | - | - |
| 1777751043 | 12.78° C | 48% | 1008.4 hPa | - | - | - | - |
| 1777750143 | 13.89° C | 45% | 1008.4 hPa | - | - | - | - |
| 1777749243 | 14.44° C | 44% | 1008.5 hPa | - | - | - | - |
| 1777748343 | 14.44° C | 43% | 1008.6 hPa | - | - | - | - |
| 1777747443 | 15° C | 42% | 1008.6 hPa | - | - | - | - |
| 1777746543 | 15.56° C | 41% | 1008.6 hPa | - | - | - | - |
| 1777745643 | 16.11° C | 39% | 1008.6 hPa | - | - | - | - |
| 1777744743 | 16.11° C | 38% | 1008.6 hPa | - | - | - | - |
| 1777743843 | 17.22° C | 35% | 1008.5 hPa | - | - | - | - |
| 1777742943 | 17.22° C | 34% | 1008.5 hPa | - | - | - | - |
| 1777742043 | 18.33° C | 31% | 1008.4 hPa | - | - | - | - |
| 1777741143 | 18.89° C | 30% | 1008.4 hPa | - | - | - | - |
| 1777740242 | 19.44° C | 27% | 1008.3 hPa | - | - | - | - |
| 1777739342 | 20° C | 25% | 1008.4 hPa | - | - | - | - |
| 1777738442 | 20.56° C | 24% | 1008.4 hPa | - | - | - | - |
| 1777737542 | 20.56° C | 24% | 1008.5 hPa | - | - | - | - |
| 1777736641 | 21.11° C | 24% | 1008.5 hPa | - | - | - | - |
| 1777735741 | 21.67° C | 24% | 1008.6 hPa | - | - | - | - |
| 1777734841 | 21.67° C | 27% | 1008.7 hPa | - | - | - | - |
| 1777733941 | 21.67° C | 26% | 1008.6 hPa | - | - | - | - |
| 1777733041 | 21.67° C | 27% | 1008.6 hPa | - | - | - | - |
| 1777732141 | 22.22° C | 26% | 1008.7 hPa | - | - | - | - |
| 1777731241 | 22.78° C | 26% | 1008.7 hPa | - | - | - | - |
| 1777730341 | 23.33° C | 26% | 1008.6 hPa | - | - | - | - |
* Rain since midnight (hover to see other rain measurements)
** Current wind speed in m/s (hover to see current wind gust speed)